Climatologie pour Saint-Brevin les Pins
Jour • Résumé pour décembre 7, 2017 Système :  Mixte    Anglais   Métrique
« - 1 jour
+ 1 jour »
Jour Semaine Mois Année Personnalisé
  Maximum : Minimum : Moyenne :
Température sous abri : 55.4 °F /  13.0 °C 38.1 °F /  3.4 °C 48.9 °F /  9.4 °C
Point de rosée : 54.9 °F /  12.7 °C 36.3 °F /  2.4 °C 47.8 °F /  8.8 °C
Humidité : 98 % 92 % 96 %
Vitesse du vent : 19 mph /  30.6 km/h - 7.5 mph /  12.1 km/h
Rafale : 27 mph /  43.4 km/h - -
Direction :- - SW
Pression : 30.3 in /  1027.0 hPa 30 in /  1015.8 hPa -
Précipitations : 0.28 in /  7.1 mm    
Historical Graphs
 
 
Tableau de données pour décembre 7, 2017
Heure Tempé Pt rosée Pression Vent Vitesse Rafale Humidité Taux pluie (/hr) Soleil
00:00 38.1 °F /  3.4 °C 36.3 °F /  2.4 °C 30.3 in /  1027.0 hPa South 4 mph /  6.4 km/h 13 mph /  20.9 km/h 93 % 0 in /  0.0 mm 0 W/m2
00:10 38.1 °F /  3.4 °C 36.3 °F /  2.4 °C 30.3 in /  1027.0 hPa South 6 mph /  9.7 km/h 11 mph /  17.7 km/h 93 % 0 in /  0.0 mm 0 W/m2
00:15 38.3 °F /  3.5 °C 36.5 °F /  2.5 °C 30.3 in /  1027.0 hPa SE 6 mph /  9.7 km/h 10 mph /  16.1 km/h 93 % 0 in /  0.0 mm 0 W/m2
00:20 38.3 °F /  3.5 °C 36.5 °F /  2.5 °C 30.3 in /  1027.0 hPa SSE 7 mph /  11.3 km/h 10 mph /  16.1 km/h 93 % 0 in /  0.0 mm 0 W/m2
00:25 38.3 °F /  3.5 °C 36.5 °F /  2.5 °C 30.3 in /  1026.6 hPa SSE 5 mph /  8.0 km/h 11 mph /  17.7 km/h 93 % 0 in /  0.0 mm 0 W/m2
00:30 38.3 °F /  3.5 °C 36.5 °F /  2.5 °C 30.3 in /  1026.6 hPa South 7 mph /  11.3 km/h 11 mph /  17.7 km/h 93 % 0 in /  0.0 mm 0 W/m2
00:35 38.3 °F /  3.5 °C 36.5 °F /  2.5 °C 30.3 in /  1026.6 hPa SE 7 mph /  11.3 km/h 10 mph /  16.1 km/h 93 % 0 in /  0.0 mm 0 W/m2
00:40 38.5 °F /  3.6 °C 36.5 °F /  2.5 °C 30.3 in /  1026.3 hPa SE 9 mph /  14.5 km/h 10 mph /  16.1 km/h 93 % 0 in /  0.0 mm 0 W/m2
00:45 38.5 °F /  3.6 °C 36.7 °F /  2.6 °C 30.3 in /  1026.3 hPa SSE 9 mph /  14.5 km/h 10 mph /  16.1 km/h 93 % 0 in /  0.0 mm 0 W/m2
00:50 38.7 °F /  3.7 °C 36.7 °F /  2.6 °C 30.3 in /  1026.3 hPa South 7 mph /  11.3 km/h 10 mph /  16.1 km/h 93 % 0 in /  0.0 mm 0 W/m2
00:55 38.7 °F /  3.7 °C 36.7 °F /  2.6 °C 30.3 in /  1026.3 hPa South 6 mph /  9.7 km/h 10 mph /  16.1 km/h 93 % 0 in /  0.0 mm 0 W/m2
01:00 38.7 °F /  3.7 °C 36.9 °F /  2.7 °C 30.3 in /  1026.0 hPa SSE 7 mph /  11.3 km/h 12 mph /  19.3 km/h 93 % 0 in /  0.0 mm 0 W/m2
01:05 38.8 °F /  3.8 °C 36.9 °F /  2.7 °C 30.3 in /  1026.0 hPa SSE 7 mph /  11.3 km/h 12 mph /  19.3 km/h 93 % 0 in /  0.0 mm 0 W/m2
01:10 38.8 °F /  3.8 °C 36.9 °F /  2.7 °C 30.3 in /  1026.0 hPa SSE 6 mph /  9.7 km/h 11 mph /  17.7 km/h 93 % 0 in /  0.0 mm 0 W/m2
01:15 38.8 °F /  3.8 °C 37 °F /  2.8 °C 30.3 in /  1026.0 hPa SSE 6 mph /  9.7 km/h 11 mph /  17.7 km/h 93 % 0 in /  0.0 mm 0 W/m2
01:20 39 °F /  3.9 °C 37.2 °F /  2.9 °C 30.3 in /  1026.0 hPa South 5 mph /  8.0 km/h 11 mph /  17.7 km/h 93 % 0 in /  0.0 mm 0 W/m2
01:25 39 °F /  3.9 °C 37.2 °F /  2.9 °C 30.3 in /  1025.6 hPa SSE 5 mph /  8.0 km/h 11 mph /  17.7 km/h 93 % 0 in /  0.0 mm 0 W/m2
01:30 39.4 °F /  4.1 °C 37.4 °F /  3.0 °C 30.3 in /  1025.6 hPa SSW 6 mph /  9.7 km/h 10 mph /  16.1 km/h 93 % 0 in /  0.0 mm 0 W/m2
01:35 39.6 °F /  4.2 °C 37.6 °F /  3.1 °C 30.3 in /  1025.6 hPa SSE 5 mph /  8.0 km/h 12 mph /  19.3 km/h 93 % 0 in /  0.0 mm 0 W/m2
01:40 39.6 °F /  4.2 °C 37.6 °F /  3.1 °C 30.3 in /  1025.6 hPa South 7 mph /  11.3 km/h 12 mph /  19.3 km/h 93 % 0 in /  0.0 mm 0 W/m2
01:45 39.4 °F /  4.1 °C 37.2 °F /  2.9 °C 30.3 in /  1025.6 hPa South 9 mph /  14.5 km/h 12 mph /  19.3 km/h 92 % 0 in /  0.0 mm 0 W/m2
01:50 39.4 °F /  4.1 °C 37.4 °F /  3.0 °C 30.3 in /  1025.6 hPa SSE 10 mph /  16.1 km/h 12 mph /  19.3 km/h 93 % 0 in /  0.0 mm 0 W/m2
01:55 39.2 °F /  4.0 °C 37.4 °F /  3.0 °C 30.3 in /  1025.6 hPa SSW 4 mph /  6.4 km/h 11 mph /  17.7 km/h 93 % 0 in /  0.0 mm 0 W/m2
02:00 39.2 °F /  4.0 °C 37.4 °F /  3.0 °C 30.3 in /  1025.6 hPa SSW 11 mph /  17.7 km/h 13 mph /  20.9 km/h 93 % 0 in /  0.0 mm 0 W/m2
02:05 39 °F /  3.9 °C 37 °F /  2.8 °C 30.3 in /  1025.3 hPa SSE 4 mph /  6.4 km/h 13 mph /  20.9 km/h 92 % 0 in /  0.0 mm 0 W/m2
02:10 39.2 °F /  4.0 °C 37.4 °F /  3.0 °C 30.3 in /  1025.3 hPa SSE 9 mph /  14.5 km/h 16 mph /  25.7 km/h 93 % 0 in /  0.0 mm 0 W/m2
02:15 39.4 °F /  4.1 °C 37.4 °F /  3.0 °C 30.3 in /  1025.3 hPa SSW 7 mph /  11.3 km/h 16 mph /  25.7 km/h 93 % 0 in /  0.0 mm 0 W/m2
02:20 39.6 °F /  4.2 °C 37.6 °F /  3.1 °C 30.3 in /  1024.9 hPa South 10 mph /  16.1 km/h 13 mph /  20.9 km/h 93 % 0 in /  0.0 mm 0 W/m2
02:25 39.7 °F /  4.3 °C 37.8 °F /  3.2 °C 30.3 in /  1024.9 hPa SE 6 mph /  9.7 km/h 14 mph /  22.5 km/h 93 % 0 in /  0.0 mm 0 W/m2
02:30 39.9 °F /  4.4 °C 38.1 °F /  3.4 °C 30.3 in /  1024.9 hPa South 9 mph /  14.5 km/h 14 mph /  22.5 km/h 93 % 0 in /  0.0 mm 0 W/m2
02:35 40.1 °F /  4.5 °C 38.5 °F /  3.6 °C 30.3 in /  1024.9 hPa SSE 9 mph /  14.5 km/h 12 mph /  19.3 km/h 94 % 0 in /  0.0 mm 0 W/m2
02:40 40.3 °F /  4.6 °C 38.7 °F /  3.7 °C 30.3 in /  1024.9 hPa SSE 9 mph /  14.5 km/h 14 mph /  22.5 km/h 94 % 0 in /  0.0 mm 0 W/m2
02:45 40.6 °F /  4.8 °C 39 °F /  3.9 °C 30.3 in /  1024.6 hPa SSE 6 mph /  9.7 km/h 14 mph /  22.5 km/h 94 % 0 in /  0.0 mm 0 W/m2
02:50 40.8 °F /  4.9 °C 39.4 °F /  4.1 °C 30.3 in /  1024.6 hPa South 10 mph /  16.1 km/h 14 mph /  22.5 km/h 94 % 0 in /  0.0 mm 0 W/m2
02:55 41.4 °F /  5.2 °C 39.9 °F /  4.4 °C 30.3 in /  1024.6 hPa SSW 7 mph /  11.3 km/h 15 mph /  24.1 km/h 95 % 0 in /  0.0 mm 0 W/m2
03:00 41.5 °F /  5.3 °C 40.3 °F /  4.6 °C 30.3 in /  1024.6 hPa South 7 mph /  11.3 km/h 18 mph /  29.0 km/h 95 % 0 in /  0.0 mm 0 W/m2
03:05 41.5 °F /  5.3 °C 40.3 °F /  4.6 °C 30.3 in /  1024.3 hPa South 8 mph /  12.9 km/h 18 mph /  29.0 km/h 95 % 0 in /  0.0 mm 0 W/m2
03:10 41.7 °F /  5.4 °C 40.5 °F /  4.7 °C 30.3 in /  1024.3 hPa South 8 mph /  12.9 km/h 18 mph /  29.0 km/h 95 % 0 in /  0.0 mm 0 W/m2
03:15 41.7 °F /  5.4 °C 40.5 °F /  4.7 °C 30.3 in /  1024.3 hPa SE 8 mph /  12.9 km/h 18 mph /  29.0 km/h 95 % 0 in /  0.0 mm 0 W/m2
03:20 41.9 °F /  5.5 °C 40.6 °F /  4.8 °C 30.3 in /  1024.3 hPa SSE 11 mph /  17.7 km/h 17 mph /  27.4 km/h 95 % 0 in /  0.0 mm 0 W/m2
03:25 42.1 °F /  5.6 °C 40.6 °F /  4.8 °C 30.3 in /  1024.3 hPa SSE 12 mph /  19.3 km/h 16 mph /  25.7 km/h 95 % 0 in /  0.0 mm 0 W/m2
03:30 42.3 °F /  5.7 °C 41 °F /  5.0 °C 30.3 in /  1024.3 hPa SSE 5 mph /  8.0 km/h 18 mph /  29.0 km/h 95 % 0 in /  0.0 mm 0 W/m2
03:35 42.4 °F /  5.8 °C 41 °F /  5.0 °C 30.3 in /  1024.3 hPa SSE 13 mph /  20.9 km/h 18 mph /  29.0 km/h 95 % 0 in /  0.0 mm 0 W/m2
03:40 42.6 °F /  5.9 °C 41.2 °F /  5.1 °C 30.3 in /  1024.3 hPa South 7 mph /  11.3 km/h 15 mph /  24.1 km/h 95 % 0 in /  0.0 mm 0 W/m2
03:45 42.8 °F /  6.0 °C 41.5 °F /  5.3 °C 30.2 in /  1023.9 hPa South 6 mph /  9.7 km/h 18 mph /  29.0 km/h 95 % 0 in /  0.0 mm 0 W/m2
03:50 43 °F /  6.1 °C 41.7 °F /  5.4 °C 30.2 in /  1023.9 hPa South 11 mph /  17.7 km/h 18 mph /  29.0 km/h 95 % 0 in /  0.0 mm 0 W/m2
03:55 43.2 °F /  6.2 °C 41.7 °F /  5.4 °C 30.2 in /  1023.9 hPa SSE 7 mph /  11.3 km/h 17 mph /  27.4 km/h 95 % 0 in /  0.0 mm 0 W/m2
04:00 43.2 °F /  6.2 °C 42.1 °F /  5.6 °C 30.2 in /  1023.9 hPa South 5 mph /  8.0 km/h 14 mph /  22.5 km/h 96 % 0 in /  0.0 mm 0 W/m2
04:05 43.2 °F /  6.2 °C 42.1 °F /  5.6 °C 30.2 in /  1023.6 hPa SSW 11 mph /  17.7 km/h 16 mph /  25.7 km/h 96 % 0.01 in /  0.3 mm 0 W/m2
04:10 43.3 °F /  6.3 °C 42.3 °F /  5.7 °C 30.2 in /  1023.6 hPa South 9 mph /  14.5 km/h 16 mph /  25.7 km/h 96 % 0.01 in /  0.3 mm 0 W/m2
04:15 43.5 °F /  6.4 °C 42.6 °F /  5.9 °C 30.2 in /  1023.6 hPa South 8 mph /  12.9 km/h 14 mph /  22.5 km/h 96 % 0.01 in /  0.3 mm 0 W/m2
04:25 44.1 °F /  6.7 °C 43 °F /  6.1 °C 30.2 in /  1023.6 hPa South 7 mph /  11.3 km/h 18 mph /  29.0 km/h 96 % 0.01 in /  0.3 mm 0 W/m2
04:30 44.1 °F /  6.7 °C 43 °F /  6.1 °C 30.2 in /  1023.6 hPa South 9 mph /  14.5 km/h 16 mph /  25.7 km/h 96 % 0.01 in /  0.3 mm 0 W/m2
04:35 44.2 °F /  6.8 °C 43.2 °F /  6.2 °C 30.2 in /  1023.6 hPa South 9 mph /  14.5 km/h 14 mph /  22.5 km/h 96 % 0.01 in /  0.3 mm 0 W/m2
04:40 44.2 °F /  6.8 °C 43.2 °F /  6.2 °C 30.2 in /  1023.2 hPa SSW 7 mph /  11.3 km/h 13 mph /  20.9 km/h 96 % 0.01 in /  0.3 mm 0 W/m2
04:45 44.2 °F /  6.8 °C 43.2 °F /  6.2 °C 30.2 in /  1023.2 hPa South 8 mph /  12.9 km/h 14 mph /  22.5 km/h 96 % 0.01 in /  0.3 mm 0 W/m2
04:50 44.4 °F /  6.9 °C 43.3 °F /  6.3 °C 30.2 in /  1023.2 hPa SSE 4 mph /  6.4 km/h 15 mph /  24.1 km/h 96 % 0.01 in /  0.3 mm 0 W/m2
04:55 44.4 °F /  6.9 °C 43.5 °F /  6.4 °C 30.2 in /  1022.9 hPa South 8 mph /  12.9 km/h 15 mph /  24.1 km/h 96 % 0.01 in /  0.3 mm 0 W/m2
05:05 45 °F /  7.2 °C 43.9 °F /  6.6 °C 30.2 in /  1022.9 hPa South 11 mph /  17.7 km/h 14 mph /  22.5 km/h 96 % 0 in /  0.0 mm 0 W/m2
05:10 45.1 °F /  7.3 °C 44.1 °F /  6.7 °C 30.2 in /  1022.9 hPa South 10 mph /  16.1 km/h 14 mph /  22.5 km/h 96 % 0 in /  0.0 mm 0 W/m2
05:15 45.3 °F /  7.4 °C 44.2 °F /  6.8 °C 30.2 in /  1022.9 hPa SSE 4 mph /  6.4 km/h 13 mph /  20.9 km/h 96 % 0 in /  0.0 mm 0 W/m2
05:20 45.7 °F /  7.6 °C 44.6 °F /  7.0 °C 30.2 in /  1022.9 hPa South 8 mph /  12.9 km/h 13 mph /  20.9 km/h 96 % 0 in /  0.0 mm 0 W/m2
05:25 45.9 °F /  7.7 °C 44.8 °F /  7.1 °C 30.2 in /  1022.6 hPa SSE 5 mph /  8.0 km/h 12 mph /  19.3 km/h 96 % 0 in /  0.0 mm 0 W/m2
05:30 45.9 °F /  7.7 °C 44.8 °F /  7.1 °C 30.2 in /  1022.6 hPa SSE 6 mph /  9.7 km/h 12 mph /  19.3 km/h 96 % 0 in /  0.0 mm 0 W/m2
05:35 46 °F /  7.8 °C 45 °F /  7.2 °C 30.2 in /  1022.6 hPa South 5 mph /  8.0 km/h 12 mph /  19.3 km/h 96 % 0 in /  0.0 mm 0 W/m2
05:40 46.2 °F /  7.9 °C 45.1 °F /  7.3 °C 30.2 in /  1022.6 hPa SSE 6 mph /  9.7 km/h 13 mph /  20.9 km/h 96 % 0 in /  0.0 mm 0 W/m2
05:45 46.2 °F /  7.9 °C 45.1 °F /  7.3 °C 30.2 in /  1022.2 hPa SSE 6 mph /  9.7 km/h 13 mph /  20.9 km/h 96 % 0 in /  0.0 mm 0 W/m2
05:50 46.4 °F /  8.0 °C 45.3 °F /  7.4 °C 30.2 in /  1022.2 hPa SSW 10 mph /  16.1 km/h 10 mph /  16.1 km/h 96 % 0 in /  0.0 mm 0 W/m2
05:55 46.8 °F /  8.2 °C 45.7 °F /  7.6 °C 30.2 in /  1022.2 hPa SSW 10 mph /  16.1 km/h 13 mph /  20.9 km/h 96 % 0 in /  0.0 mm 0 W/m2
06:00 47.5 °F /  8.6 °C 46.4 °F /  8.0 °C 30.2 in /  1021.9 hPa South 5 mph /  8.0 km/h 13 mph /  20.9 km/h 96 % 0 in /  0.0 mm 0 W/m2
06:05 47.7 °F /  8.7 °C 46.6 °F /  8.1 °C 30.2 in /  1021.9 hPa SSW 10 mph /  16.1 km/h 15 mph /  24.1 km/h 96 % 0 in /  0.0 mm 0 W/m2
06:10 48 °F /  8.9 °C 46.9 °F /  8.3 °C 30.2 in /  1021.9 hPa SSE 4 mph /  6.4 km/h 15 mph /  24.1 km/h 96 % 0 in /  0.0 mm 0 W/m2
06:15 48.4 °F /  9.1 °C 47.3 °F /  8.5 °C 30.2 in /  1021.6 hPa South 7 mph /  11.3 km/h 11 mph /  17.7 km/h 96 % 0 in /  0.0 mm 0 W/m2
06:20 48.6 °F /  9.2 °C 47.5 °F /  8.6 °C 30.2 in /  1021.6 hPa South 4 mph /  6.4 km/h 12 mph /  19.3 km/h 96 % 0 in /  0.0 mm 0 W/m2
06:25 48.7 °F /  9.3 °C 47.7 °F /  8.7 °C 30.2 in /  1021.6 hPa South 9 mph /  14.5 km/h 12 mph /  19.3 km/h 96 % 0 in /  0.0 mm 0 W/m2
06:30 49.3 °F /  9.6 °C 48.2 °F /  9.0 °C 30.2 in /  1021.6 hPa SSW 12 mph /  19.3 km/h 14 mph /  22.5 km/h 96 % 0 in /  0.0 mm 0 W/m2
06:35 50.2 °F /  10.1 °C 48.9 °F /  9.4 °C 30.2 in /  1021.2 hPa SSW 11 mph /  17.7 km/h 18 mph /  29.0 km/h 96 % 0 in /  0.0 mm 0 W/m2
06:40 50.7 °F /  10.4 °C 49.6 °F /  9.8 °C 30.2 in /  1021.2 hPa SSW 7 mph /  11.3 km/h 18 mph /  29.0 km/h 96 % 0 in /  0.0 mm 0 W/m2
06:45 51.1 °F /  10.6 °C 49.6 °F /  9.8 °C 30.2 in /  1021.2 hPa SSE 4 mph /  6.4 km/h 20 mph /  32.2 km/h 95 % 0 in /  0.0 mm 0 W/m2
06:50 51.1 °F /  10.6 °C 49.6 °F /  9.8 °C 30.2 in /  1021.2 hPa South 8 mph /  12.9 km/h 20 mph /  32.2 km/h 95 % 0 in /  0.0 mm 0 W/m2
06:55 51.3 °F /  10.7 °C 49.8 °F /  9.9 °C 30.2 in /  1021.2 hPa SSW 13 mph /  20.9 km/h 19 mph /  30.6 km/h 95 % 0 in /  0.0 mm 0 W/m2
07:00 51.4 °F /  10.8 °C 50 °F /  10.0 °C 30.2 in /  1021.2 hPa South 11 mph /  17.7 km/h 19 mph /  30.6 km/h 95 % 0 in /  0.0 mm 0 W/m2
07:05 51.3 °F /  10.7 °C 50 °F /  10.0 °C 30.2 in /  1020.9 hPa South 12 mph /  19.3 km/h 18 mph /  29.0 km/h 95 % 0 in /  0.0 mm 0 W/m2
07:10 51.3 °F /  10.7 °C 50 °F /  10.0 °C 30.2 in /  1020.9 hPa SSW 12 mph /  19.3 km/h 20 mph /  32.2 km/h 95 % 0 in /  0.0 mm 0 W/m2
07:15 51.4 °F /  10.8 °C 50 °F /  10.0 °C 30.2 in /  1020.9 hPa South 10 mph /  16.1 km/h 20 mph /  32.2 km/h 95 % 0 in /  0.0 mm 0 W/m2
07:20 51.4 °F /  10.8 °C 50 °F /  10.0 °C 30.2 in /  1020.9 hPa South 10 mph /  16.1 km/h 18 mph /  29.0 km/h 95 % 0 in /  0.0 mm 0 W/m2
07:25 51.4 °F /  10.8 °C 50.2 °F /  10.1 °C 30.2 in /  1020.9 hPa SSW 6 mph /  9.7 km/h 18 mph /  29.0 km/h 95 % 0 in /  0.0 mm 0 W/m2
07:30 51.4 °F /  10.8 °C 50.2 °F /  10.1 °C 30.2 in /  1020.9 hPa SSW 7 mph /  11.3 km/h 17 mph /  27.4 km/h 95 % 0 in /  0.0 mm 0 W/m2
07:35 51.4 °F /  10.8 °C 50.2 °F /  10.1 °C 30.1 in /  1020.5 hPa SSW 9 mph /  14.5 km/h 17 mph /  27.4 km/h 95 % 0 in /  0.0 mm 0 W/m2
07:40 51.6 °F /  10.9 °C 50.4 °F /  10.2 °C 30.1 in /  1020.5 hPa SW 14 mph /  22.5 km/h 18 mph /  29.0 km/h 95 % 0 in /  0.0 mm 0 W/m2
07:45 51.8 °F /  11.0 °C 50.4 °F /  10.2 °C 30.1 in /  1020.5 hPa South 5 mph /  8.0 km/h 22 mph /  35.4 km/h 95 % 0 in /  0.0 mm 0 W/m2
07:50 52 °F /  11.1 °C 50.5 °F /  10.3 °C 30.1 in /  1020.5 hPa SSW 13 mph /  20.9 km/h 22 mph /  35.4 km/h 95 % 0 in /  0.0 mm 0 W/m2
07:55 52 °F /  11.1 °C 50.5 °F /  10.3 °C 30.1 in /  1020.5 hPa SSW 8 mph /  12.9 km/h 21 mph /  33.8 km/h 95 % 0 in /  0.0 mm 0 W/m2
08:00 52.2 °F /  11.2 °C 50.7 °F /  10.4 °C 30.1 in /  1020.5 hPa SSW 8 mph /  12.9 km/h 18 mph /  29.0 km/h 95 % 0 in /  0.0 mm 0 W/m2
08:05 52.2 °F /  11.2 °C 50.9 °F /  10.5 °C 30.1 in /  1020.5 hPa SSW 11 mph /  17.7 km/h 18 mph /  29.0 km/h 95 % 0 in /  0.0 mm 0 W/m2
08:10 52.3 °F /  11.3 °C 51.3 °F /  10.7 °C 30.1 in /  1020.2 hPa South 9 mph /  14.5 km/h 19 mph /  30.6 km/h 96 % 0.01 in /  0.3 mm 0 W/m2
08:15 52.3 °F /  11.3 °C 51.3 °F /  10.7 °C 30.1 in /  1020.2 hPa SW 7 mph /  11.3 km/h 19 mph /  30.6 km/h 96 % 0.01 in /  0.3 mm 0 W/m2
08:20 52.5 °F /  11.4 °C 51.4 °F /  10.8 °C 30.1 in /  1020.2 hPa South 10 mph /  16.1 km/h 19 mph /  30.6 km/h 96 % 0.01 in /  0.3 mm 0 W/m2
08:25 52.5 °F /  11.4 °C 51.4 °F /  10.8 °C 30.1 in /  1020.2 hPa South 10 mph /  16.1 km/h 19 mph /  30.6 km/h 96 % 0.01 in /  0.3 mm 0 W/m2
08:30 52.5 °F /  11.4 °C 51.4 °F /  10.8 °C 30.1 in /  1020.2 hPa SSW 7 mph /  11.3 km/h 17 mph /  27.4 km/h 96 % 0.01 in /  0.3 mm 0 W/m2
08:35 52.7 °F /  11.5 °C 51.6 °F /  10.9 °C 30.1 in /  1019.9 hPa SSW 6 mph /  9.7 km/h 16 mph /  25.7 km/h 96 % 0.01 in /  0.3 mm 0 W/m2
08:40 52.7 °F /  11.5 °C 51.6 °F /  10.9 °C 30.1 in /  1019.9 hPa SSW 9 mph /  14.5 km/h 16 mph /  25.7 km/h 96 % 0.01 in /  0.3 mm 0 W/m2
08:45 52.5 °F /  11.4 °C 51.4 °F /  10.8 °C 30.1 in /  1019.9 hPa SSE 14 mph /  22.5 km/h 16 mph /  25.7 km/h 96 % 0.01 in /  0.3 mm 0 W/m2
08:50 52.3 °F /  11.3 °C 51.1 °F /  10.6 °C 30.1 in /  1019.9 hPa SSW 10 mph /  16.1 km/h 18 mph /  29.0 km/h 95 % 0.01 in /  0.3 mm 0 W/m2
08:55 52.3 °F /  11.3 °C 51.1 °F /  10.6 °C 30.1 in /  1019.9 hPa South 7 mph /  11.3 km/h 18 mph /  29.0 km/h 95 % 0.01 in /  0.3 mm 0 W/m2
09:00 52.3 °F /  11.3 °C 51.1 °F /  10.6 °C 30.1 in /  1019.9 hPa South 13 mph /  20.9 km/h 16 mph /  25.7 km/h 95 % 0.02 in /  0.5 mm 0 W/m2
09:05 52.3 °F /  11.3 °C 51.3 °F /  10.7 °C 30.1 in /  1019.5 hPa SSW 8 mph /  12.9 km/h 16 mph /  25.7 km/h 96 % 0.02 in /  0.5 mm 0 W/m2
09:10 52.5 °F /  11.4 °C 51.4 °F /  10.8 °C 30.1 in /  1019.5 hPa SSW 9 mph /  14.5 km/h 21 mph /  33.8 km/h 96 % 0.01 in /  0.3 mm 0 W/m2
09:15 52.5 °F /  11.4 °C 51.4 °F /  10.8 °C 30.1 in /  1019.5 hPa SSW 8 mph /  12.9 km/h 21 mph /  33.8 km/h 96 % 0.01 in /  0.3 mm 0 W/m2
09:20 52.5 °F /  11.4 °C 51.4 °F /  10.8 °C 30.1 in /  1019.5 hPa SW 9 mph /  14.5 km/h 20 mph /  32.2 km/h 96 % 0.01 in /  0.3 mm 9 W/m2
09:25 52.5 °F /  11.4 °C 51.4 °F /  10.8 °C 30.1 in /  1019.5 hPa SSW 10 mph /  16.1 km/h 20 mph /  32.2 km/h 96 % 0.01 in /  0.3 mm 12 W/m2
09:30 52.5 °F /  11.4 °C 51.4 °F /  10.8 °C 30.1 in /  1019.5 hPa South 11 mph /  17.7 km/h 19 mph /  30.6 km/h 96 % 0.01 in /  0.3 mm 7 W/m2
09:40 52.7 °F /  11.5 °C 51.6 °F /  10.9 °C 30.1 in /  1019.5 hPa South 6 mph /  9.7 km/h 18 mph /  29.0 km/h 96 % 0.03 in /  0.8 mm 7 W/m2
09:45 52.9 °F /  11.6 °C 51.6 °F /  10.9 °C 30.1 in /  1019.2 hPa SSW 9 mph /  14.5 km/h 23 mph /  37.0 km/h 96 % 0.04 in /  1.0 mm 11 W/m2
09:50 52.9 °F /  11.6 °C 51.8 °F /  11.0 °C 30.1 in /  1019.5 hPa SW 5 mph /  8.0 km/h 23 mph /  37.0 km/h 96 % 0.05 in /  1.3 mm 9 W/m2
09:55 52.9 °F /  11.6 °C 51.8 °F /  11.0 °C 30.1 in /  1019.5 hPa SSW 11 mph /  17.7 km/h 18 mph /  29.0 km/h 96 % 0.06 in /  1.5 mm 7 W/m2
10:00 52.9 °F /  11.6 °C 52.2 °F /  11.2 °C 30.1 in /  1019.5 hPa SW 13 mph /  20.9 km/h 18 mph /  29.0 km/h 97 % 0.06 in /  1.5 mm 11 W/m2
10:05 53.1 °F /  11.7 °C 52.2 °F /  11.2 °C 30.1 in /  1019.2 hPa SW 15 mph /  24.1 km/h 27 mph /  43.4 km/h 97 % 0.07 in /  1.8 mm 21 W/m2
10:10 53.1 °F /  11.7 °C 52.3 °F /  11.3 °C 30.1 in /  1019.2 hPa SW 10 mph /  16.1 km/h 27 mph /  43.4 km/h 97 % 0.08 in /  2.0 mm 14 W/m2
10:15 53.2 °F /  11.8 °C 52.3 °F /  11.3 °C 30.1 in /  1019.5 hPa SSW 10 mph /  16.1 km/h 20 mph /  32.2 km/h 97 % 0.09 in /  2.3 mm 7 W/m2
10:20 53.2 °F /  11.8 °C 52.5 °F /  11.4 °C 30.1 in /  1019.2 hPa West 11 mph /  17.7 km/h 20 mph /  32.2 km/h 97 % 0.11 in /  2.8 mm 5 W/m2
10:25 53.2 °F /  11.8 °C 52.5 °F /  11.4 °C 30.1 in /  1019.2 hPa SSW 10 mph /  16.1 km/h 21 mph /  33.8 km/h 97 % 0.12 in /  3.0 mm 9 W/m2
10:30 53.4 °F /  11.9 °C 52.7 °F /  11.5 °C 30.1 in /  1018.8 hPa SW 5 mph /  8.0 km/h 21 mph /  33.8 km/h 97 % 0.13 in /  3.3 mm 12 W/m2
10:40 53.8 °F /  12.1 °C 52.9 °F /  11.6 °C 30.1 in /  1018.8 hPa South 12 mph /  19.3 km/h 19 mph /  30.6 km/h 97 % 0.11 in /  2.8 mm 11 W/m2
10:45 53.8 °F /  12.1 °C 52.9 °F /  11.6 °C 30.1 in /  1018.8 hPa WSW 7 mph /  11.3 km/h 23 mph /  37.0 km/h 97 % 0.11 in /  2.8 mm 16 W/m2
10:50 53.8 °F /  12.1 °C 52.9 °F /  11.6 °C 30.1 in /  1018.8 hPa South 5 mph /  8.0 km/h 23 mph /  37.0 km/h 97 % 0.09 in /  2.3 mm 19 W/m2
10:55 53.8 °F /  12.1 °C 52.9 °F /  11.6 °C 30.1 in /  1018.8 hPa SSW 13 mph /  20.9 km/h 20 mph /  32.2 km/h 97 % 0.09 in /  2.3 mm 21 W/m2
11:00 53.8 °F /  12.1 °C 52.9 °F /  11.6 °C 30.1 in /  1018.8 hPa SSW 9 mph /  14.5 km/h 19 mph /  30.6 km/h 97 % 0.09 in /  2.3 mm 28 W/m2
11:05 54 °F /  12.2 °C 53.1 °F /  11.7 °C 30.1 in /  1018.8 hPa South 9 mph /  14.5 km/h 21 mph /  33.8 km/h 97 % 0.08 in /  2.0 mm 18 W/m2
11:10 54 °F /  12.2 °C 53.1 °F /  11.7 °C 30.1 in /  1018.8 hPa SW 9 mph /  14.5 km/h 21 mph /  33.8 km/h 97 % 0.09 in /  2.3 mm 21 W/m2
11:15 54 °F /  12.2 °C 53.2 °F /  11.8 °C 30.1 in /  1018.8 hPa WSW 11 mph /  17.7 km/h 18 mph /  29.0 km/h 97 % 0.09 in /  2.3 mm 21 W/m2
11:20 54.1 °F /  12.3 °C 53.2 °F /  11.8 °C 30.1 in /  1018.8 hPa WNW 11 mph /  17.7 km/h 21 mph /  33.8 km/h 97 % 0.08 in /  2.0 mm 16 W/m2
11:25 54.1 °F /  12.3 °C 53.2 °F /  11.8 °C 30.1 in /  1018.5 hPa SSW 6 mph /  9.7 km/h 21 mph /  33.8 km/h 97 % 0.07 in /  1.8 mm 14 W/m2
11:30 54.1 °F /  12.3 °C 53.4 °F /  11.9 °C 30.1 in /  1018.5 hPa WSW 9 mph /  14.5 km/h 18 mph /  29.0 km/h 97 % 0.06 in /  1.5 mm 14 W/m2
11:35 54.3 °F /  12.4 °C 53.4 °F /  11.9 °C 30.1 in /  1018.5 hPa SSW 14 mph /  22.5 km/h 18 mph /  29.0 km/h 97 % 0.06 in /  1.5 mm 14 W/m2
11:40 54.3 °F /  12.4 °C 53.6 °F /  12.0 °C 30.1 in /  1018.5 hPa West 8 mph /  12.9 km/h 22 mph /  35.4 km/h 97 % 0.05 in /  1.3 mm 30 W/m2
11:50 54.3 °F /  12.4 °C 53.6 °F /  12.0 °C 30.1 in /  1018.5 hPa SSW 9 mph /  14.5 km/h 22 mph /  35.4 km/h 97 % 0.05 in /  1.3 mm 39 W/m2
11:55 54.5 °F /  12.5 °C 53.6 °F /  12.0 °C 30.1 in /  1018.5 hPa South 7 mph /  11.3 km/h 21 mph /  33.8 km/h 97 % 0.04 in /  1.0 mm 42 W/m2
12:00 54.5 °F /  12.5 °C 53.6 °F /  12.0 °C 30.1 in /  1018.2 hPa SSW 9 mph /  14.5 km/h 18 mph /  29.0 km/h 97 % 0.04 in /  1.0 mm 30 W/m2
12:05 54.5 °F /  12.5 °C 54 °F /  12.2 °C 30.1 in /  1018.2 hPa WSW 5 mph /  8.0 km/h 20 mph /  32.2 km/h 98 % 0.04 in /  1.0 mm 16 W/m2
12:10 54.7 °F /  12.6 °C 54 °F /  12.2 °C 30.1 in /  1017.8 hPa WSW 10 mph /  16.1 km/h 20 mph /  32.2 km/h 98 % 0.02 in /  0.5 mm 18 W/m2
12:15 54.7 °F /  12.6 °C 54 °F /  12.2 °C 30.1 in /  1017.8 hPa WSW 11 mph /  17.7 km/h 19 mph /  30.6 km/h 98 % 0.02 in /  0.5 mm 18 W/m2
12:20 54.7 °F /  12.6 °C 54 °F /  12.2 °C 30.1 in /  1017.8 hPa WSW 9 mph /  14.5 km/h 18 mph /  29.0 km/h 98 % 0.02 in /  0.5 mm 16 W/m2
12:25 54.5 °F /  12.5 °C 54 °F /  12.2 °C 30.1 in /  1017.8 hPa SW 1 mph /  1.6 km/h 16 mph /  25.7 km/h 98 % 0.02 in /  0.5 mm 21 W/m2
12:30 54.5 °F /  12.5 °C 53.6 °F /  12.0 °C 30.1 in /  1017.8 hPa WSW 9 mph /  14.5 km/h 18 mph /  29.0 km/h 97 % 0.02 in /  0.5 mm 32 W/m2
12:35 54.7 °F /  12.6 °C 53.8 °F /  12.1 °C 30.1 in /  1017.5 hPa SW 5 mph /  8.0 km/h 18 mph /  29.0 km/h 97 % 0.02 in /  0.5 mm 35 W/m2
12:40 54.7 °F /  12.6 °C 54 °F /  12.2 °C 30.1 in /  1017.5 hPa SW 6 mph /  9.7 km/h 18 mph /  29.0 km/h 98 % 0.02 in /  0.5 mm 23 W/m2
12:45 54.7 °F /  12.6 °C 54.1 °F /  12.3 °C 30.1 in /  1017.5 hPa West 5 mph /  8.0 km/h 18 mph /  29.0 km/h 98 % 0.02 in /  0.5 mm 21 W/m2
12:50 54.7 °F /  12.6 °C 54 °F /  12.2 °C 30.1 in /  1017.5 hPa SW 9 mph /  14.5 km/h 18 mph /  29.0 km/h 98 % 0.02 in /  0.5 mm 14 W/m2
12:55 54.7 °F /  12.6 °C 53.8 °F /  12.1 °C 30 in /  1017.2 hPa SW 10 mph /  16.1 km/h 19 mph /  30.6 km/h 97 % 0.02 in /  0.5 mm 26 W/m2
13:05 54.7 °F /  12.6 °C 53.8 °F /  12.1 °C 30 in /  1017.2 hPa SW 9 mph /  14.5 km/h 22 mph /  35.4 km/h 97 % 0.02 in /  0.5 mm 60 W/m2
13:10 54.7 °F /  12.6 °C 54.1 °F /  12.3 °C 30 in /  1017.2 hPa WSW 14 mph /  22.5 km/h 19 mph /  30.6 km/h 98 % 0.02 in /  0.5 mm 135 W/m2
13:15 54.9 °F /  12.7 °C 54.3 °F /  12.4 °C 30 in /  1017.2 hPa SW 13 mph /  20.9 km/h 22 mph /  35.4 km/h 98 % 0.02 in /  0.5 mm 102 W/m2
13:20 55 °F /  12.8 °C 54.5 °F /  12.5 °C 30 in /  1017.2 hPa West 12 mph /  19.3 km/h 27 mph /  43.4 km/h 98 % 0.01 in /  0.3 mm 120 W/m2
13:30 55.4 °F /  13.0 °C 54.9 °F /  12.7 °C 30 in /  1016.8 hPa WNW 6 mph /  9.7 km/h 22 mph /  35.4 km/h 98 % 0 in /  0.0 mm 65 W/m2
13:35 55.4 °F /  13.0 °C 54.9 °F /  12.7 °C 30 in /  1016.8 hPa West 7 mph /  11.3 km/h 22 mph /  35.4 km/h 98 % 0 in /  0.0 mm 60 W/m2
13:40 55.2 °F /  12.9 °C 54.3 °F /  12.4 °C 30 in /  1016.8 hPa West 3 mph /  4.8 km/h 19 mph /  30.6 km/h 97 % 0 in /  0.0 mm 53 W/m2
13:45 55 °F /  12.8 °C 54.3 °F /  12.4 °C 30 in /  1016.5 hPa WSW 11 mph /  17.7 km/h 18 mph /  29.0 km/h 97 % 0 in /  0.0 mm 35 W/m2
13:50 55.2 °F /  12.9 °C 54.7 °F /  12.6 °C 30 in /  1016.5 hPa SSW 4 mph /  6.4 km/h 18 mph /  29.0 km/h 98 % 0 in /  0.0 mm 28 W/m2
13:55 55 °F /  12.8 °C 54.5 °F /  12.5 °C 30 in /  1016.5 hPa SW 10 mph /  16.1 km/h 18 mph /  29.0 km/h 98 % 0 in /  0.0 mm 26 W/m2
14:00 55 °F /  12.8 °C 54.3 °F /  12.4 °C 30 in /  1016.5 hPa West 11 mph /  17.7 km/h 16 mph /  25.7 km/h 97 % 0 in /  0.0 mm 26 W/m2
14:05 55 °F /  12.8 °C 54.1 °F /  12.3 °C 30 in /  1016.5 hPa South 6 mph /  9.7 km/h 17 mph /  27.4 km/h 97 % 0 in /  0.0 mm 44 W/m2
14:10 55.2 °F /  12.9 °C 54.7 °F /  12.6 °C 30 in /  1016.5 hPa West 19 mph /  30.6 km/h 19 mph /  30.6 km/h 98 % 0 in /  0.0 mm 40 W/m2
14:15 55.2 °F /  12.9 °C 54.7 °F /  12.6 °C 30 in /  1016.5 hPa WSW 16 mph /  25.7 km/h 19 mph /  30.6 km/h 98 % 0.01 in /  0.3 mm 30 W/m2
14:20 55.2 °F /  12.9 °C 54.7 °F /  12.6 °C 30 in /  1016.5 hPa West 9 mph /  14.5 km/h 19 mph /  30.6 km/h 98 % 0.01 in /  0.3 mm 53 W/m2
14:25 55 °F /  12.8 °C 54.3 °F /  12.4 °C 30 in /  1016.5 hPa WNW 8 mph /  12.9 km/h 19 mph /  30.6 km/h 97 % 0.02 in /  0.5 mm 49 W/m2
14:30 55 °F /  12.8 °C 54.5 °F /  12.5 °C 30 in /  1016.1 hPa WNW 4 mph /  6.4 km/h 15 mph /  24.1 km/h 98 % 0.02 in /  0.5 mm 44 W/m2
14:35 55.2 °F /  12.9 °C 54.7 °F /  12.6 °C 30 in /  1016.1 hPa SSW 7 mph /  11.3 km/h 17 mph /  27.4 km/h 98 % 0.02 in /  0.5 mm 47 W/m2
14:40 55 °F /  12.8 °C 54.5 °F /  12.5 °C 30 in /  1016.1 hPa West 10 mph /  16.1 km/h 17 mph /  27.4 km/h 98 % 0.02 in /  0.5 mm 32 W/m2
14:45 55 °F /  12.8 °C 54.5 °F /  12.5 °C 30 in /  1016.1 hPa SW 12 mph /  19.3 km/h 17 mph /  27.4 km/h 98 % 0.02 in /  0.5 mm 35 W/m2
14:50 55 °F /  12.8 °C 54.5 °F /  12.5 °C 30 in /  1016.1 hPa West 6 mph /  9.7 km/h 17 mph /  27.4 km/h 98 % 0.03 in /  0.8 mm 32 W/m2
14:55 55 °F /  12.8 °C 54.5 °F /  12.5 °C 30 in /  1015.8 hPa WSW 8 mph /  12.9 km/h 18 mph /  29.0 km/h 98 % 0.03 in /  0.8 mm 39 W/m2
15:00 55 °F /  12.8 °C 54.5 °F /  12.5 °C 30 in /  1016.1 hPa West 8 mph /  12.9 km/h 18 mph /  29.0 km/h 98 % 0.04 in /  1.0 mm 35 W/m2
15:05 55 °F /  12.8 °C 54.5 °F /  12.5 °C 30 in /  1015.8 hPa SW 11 mph /  17.7 km/h 18 mph /  29.0 km/h 98 % 0.04 in /  1.0 mm 28 W/m2
15:10 55 °F /  12.8 °C 54.5 °F /  12.5 °C 30 in /  1015.8 hPa NW 8 mph /  12.9 km/h 21 mph /  33.8 km/h 98 % 0.04 in /  1.0 mm 39 W/m2
15:15 54.9 °F /  12.7 °C 54.3 °F /  12.4 °C 30 in /  1015.8 hPa WSW 10 mph /  16.1 km/h 21 mph /  33.8 km/h 98 % 0.03 in /  0.8 mm 37 W/m2
15:25 54.7 °F /  12.6 °C 54.1 °F /  12.3 °C 30 in /  1015.8 hPa West 10 mph /  16.1 km/h 16 mph /  25.7 km/h 98 % 0.02 in /  0.5 mm 42 W/m2
15:30 54.7 °F /  12.6 °C 54.1 °F /  12.3 °C 30 in /  1015.8 hPa WNW 8 mph /  12.9 km/h 19 mph /  30.6 km/h 98 % 0.02 in /  0.5 mm 40 W/m2
15:35 54.7 °F /  12.6 °C 54.1 °F /  12.3 °C 30 in /  1015.8 hPa West 9 mph /  14.5 km/h 19 mph /  30.6 km/h 98 % 0.02 in /  0.5 mm 37 W/m2
15:40 54.7 °F /  12.6 °C 54.1 °F /  12.3 °C 30 in /  1015.8 hPa WNW 3 mph /  4.8 km/h 18 mph /  29.0 km/h 98 % 0.02 in /  0.5 mm 44 W/m2
15:50 54.7 °F /  12.6 °C 54 °F /  12.2 °C 30 in /  1015.8 hPa NW 4 mph /  6.4 km/h 17 mph /  27.4 km/h 98 % 0.02 in /  0.5 mm 33 W/m2
15:55 54.7 °F /  12.6 °C 54 °F /  12.2 °C 30 in /  1015.8 hPa WNW 8 mph /  12.9 km/h 18 mph /  29.0 km/h 98 % 0.02 in /  0.5 mm 25 W/m2
16:00 54.7 °F /  12.6 °C 54 °F /  12.2 °C 30 in /  1015.8 hPa WNW 9 mph /  14.5 km/h 18 mph /  29.0 km/h 98 % 0.01 in /  0.3 mm 25 W/m2
16:05 54.5 °F /  12.5 °C 54 °F /  12.2 °C 30 in /  1015.8 hPa West 10 mph /  16.1 km/h 16 mph /  25.7 km/h 98 % 0.01 in /  0.3 mm 39 W/m2
16:10 54.3 °F /  12.4 °C 53.8 °F /  12.1 °C 30 in /  1015.8 hPa West 4 mph /  6.4 km/h 16 mph /  25.7 km/h 98 % 0.01 in /  0.3 mm 47 W/m2
16:20 54 °F /  12.2 °C 53.4 °F /  11.9 °C 30 in /  1015.8 hPa West 7 mph /  11.3 km/h 11 mph /  17.7 km/h 98 % 0.01 in /  0.3 mm 54 W/m2
16:25 53.8 °F /  12.1 °C 53.2 °F /  11.8 °C 30 in /  1016.1 hPa WNW 4 mph /  6.4 km/h 10 mph /  16.1 km/h 98 % 0.01 in /  0.3 mm 56 W/m2
16:30 53.4 °F /  11.9 °C 52.9 °F /  11.6 °C 30 in /  1016.1 hPa West 5 mph /  8.0 km/h 9 mph /  14.5 km/h 98 % 0 in /  0.0 mm 40 W/m2
16:40 52.9 °F /  11.6 °C 52.3 °F /  11.3 °C 30 in /  1015.8 hPa WNW 1 mph /  1.6 km/h 11 mph /  17.7 km/h 98 % 0 in /  0.0 mm 23 W/m2
16:45 52.5 °F /  11.4 °C 52 °F /  11.1 °C 30 in /  1015.8 hPa West 5 mph /  8.0 km/h 12 mph /  19.3 km/h 98 % 0 in /  0.0 mm 21 W/m2
16:50 52.3 °F /  11.3 °C 51.8 °F /  11.0 °C 30 in /  1016.1 hPa West 6 mph /  9.7 km/h 12 mph /  19.3 km/h 98 % 0 in /  0.0 mm 18 W/m2
16:55 52.2 °F /  11.2 °C 51.6 °F /  10.9 °C 30 in /  1016.1 hPa West 5 mph /  8.0 km/h 10 mph /  16.1 km/h 98 % 0 in /  0.0 mm 18 W/m2
17:05 51.8 °F /  11.0 °C 51.3 °F /  10.7 °C 30 in /  1016.1 hPa NW 11 mph /  17.7 km/h 14 mph /  22.5 km/h 98 % 0 in /  0.0 mm 16 W/m2
17:10 51.8 °F /  11.0 °C 51.3 °F /  10.7 °C 30 in /  1016.5 hPa WNW 4 mph /  6.4 km/h 14 mph /  22.5 km/h 98 % 0 in /  0.0 mm 9 W/m2
17:15 51.6 °F /  10.9 °C 51.1 °F /  10.6 °C 30 in /  1016.5 hPa West 7 mph /  11.3 km/h 13 mph /  20.9 km/h 98 % 0 in /  0.0 mm 5 W/m2
17:20 51.6 °F /  10.9 °C 51.1 °F /  10.6 °C 30 in /  1016.5 hPa West 5 mph /  8.0 km/h 13 mph /  20.9 km/h 98 % 0 in /  0.0 mm 0 W/m2
17:25 51.6 °F /  10.9 °C 51.1 °F /  10.6 °C 30 in /  1016.5 hPa NW 3 mph /  4.8 km/h 12 mph /  19.3 km/h 98 % 0 in /  0.0 mm 0 W/m2
17:30 51.8 °F /  11.0 °C 51.3 °F /  10.7 °C 30 in /  1016.5 hPa WNW 4 mph /  6.4 km/h 13 mph /  20.9 km/h 98 % 0 in /  0.0 mm 0 W/m2
17:40 52 °F /  11.1 °C 51.4 °F /  10.8 °C 30 in /  1017.2 hPa West 9 mph /  14.5 km/h 17 mph /  27.4 km/h 98 % 0 in /  0.0 mm 0 W/m2
17:45 52 °F /  11.1 °C 51.4 °F /  10.8 °C 30 in /  1017.2 hPa WNW 9 mph /  14.5 km/h 17 mph /  27.4 km/h 98 % 0 in /  0.0 mm 0 W/m2
17:50 52 °F /  11.1 °C 51.4 °F /  10.8 °C 30 in /  1017.2 hPa WNW 7 mph /  11.3 km/h 17 mph /  27.4 km/h 98 % 0 in /  0.0 mm 0 W/m2
18:00 51.8 °F /  11.0 °C 50.9 °F /  10.5 °C 30 in /  1017.2 hPa NW 8 mph /  12.9 km/h 19 mph /  30.6 km/h 97 % 0 in /  0.0 mm 0 W/m2
18:10 51.4 °F /  10.8 °C 50.5 °F /  10.3 °C 30.1 in /  1017.5 hPa NW 5 mph /  8.0 km/h 15 mph /  24.1 km/h 97 % 0 in /  0.0 mm 0 W/m2
18:15 51.3 °F /  10.7 °C 50.5 °F /  10.3 °C 30.1 in /  1017.5 hPa WNW 4 mph /  6.4 km/h 15 mph /  24.1 km/h 97 % 0 in /  0.0 mm 0 W/m2
18:30 51.1 °F /  10.6 °C 50.4 °F /  10.2 °C 30.1 in /  1017.5 hPa WNW 3 mph /  4.8 km/h 13 mph /  20.9 km/h 97 % 0 in /  0.0 mm 0 W/m2
18:35 51.1 °F /  10.6 °C 50.2 °F /  10.1 °C 30 in /  1017.2 hPa NW 10 mph /  16.1 km/h 12 mph /  19.3 km/h 97 % 0 in /  0.0 mm 0 W/m2
18:40 51.1 °F /  10.6 °C 50.2 °F /  10.1 °C 30 in /  1017.2 hPa WNW 7 mph /  11.3 km/h 11 mph /  17.7 km/h 97 % 0 in /  0.0 mm 0 W/m2
18:50 50.9 °F /  10.5 °C 50 °F /  10.0 °C 30 in /  1017.2 hPa NW 4 mph /  6.4 km/h 10 mph /  16.1 km/h 97 % 0 in /  0.0 mm 0 W/m2
18:55 50.9 °F /  10.5 °C 50 °F /  10.0 °C 30 in /  1017.2 hPa West 6 mph /  9.7 km/h 11 mph /  17.7 km/h 97 % 0 in /  0.0 mm 0 W/m2
19:00 50.9 °F /  10.5 °C 50 °F /  10.0 °C 30 in /  1017.2 hPa WNW 4 mph /  6.4 km/h 12 mph /  19.3 km/h 97 % 0 in /  0.0 mm 0 W/m2
19:05 50.9 °F /  10.5 °C 50 °F /  10.0 °C 30 in /  1017.2 hPa WNW 6 mph /  9.7 km/h 12 mph /  19.3 km/h 97 % 0 in /  0.0 mm 0 W/m2
19:10 50.9 °F /  10.5 °C 50 °F /  10.0 °C 30 in /  1017.2 hPa NW 6 mph /  9.7 km/h 14 mph /  22.5 km/h 97 % 0 in /  0.0 mm 0 W/m2
19:15 50.9 °F /  10.5 °C 50 °F /  10.0 °C 30.1 in /  1017.5 hPa NW 5 mph /  8.0 km/h 14 mph /  22.5 km/h 97 % 0 in /  0.0 mm 0 W/m2
19:20 50.9 °F /  10.5 °C 50 °F /  10.0 °C 30.1 in /  1017.8 hPa WNW 10 mph /  16.1 km/h 15 mph /  24.1 km/h 97 % 0 in /  0.0 mm 0 W/m2
19:25 50.9 °F /  10.5 °C 50 °F /  10.0 °C 30.1 in /  1017.8 hPa WNW 10 mph /  16.1 km/h 15 mph /  24.1 km/h 97 % 0 in /  0.0 mm 0 W/m2
19:30 50.7 °F /  10.4 °C 50 °F /  10.0 °C 30.1 in /  1017.8 hPa NW 11 mph /  17.7 km/h 15 mph /  24.1 km/h 97 % 0 in /  0.0 mm 0 W/m2
19:45 50.5 °F /  10.3 °C 49.6 °F /  9.8 °C 30.1 in /  1018.2 hPa NW 4 mph /  6.4 km/h 12 mph /  19.3 km/h 97 % 0 in /  0.0 mm 0 W/m2
19:50 50.4 °F /  10.2 °C 49.6 °F /  9.8 °C 30.1 in /  1018.2 hPa North 7 mph /  11.3 km/h 12 mph /  19.3 km/h 97 % 0 in /  0.0 mm 0 W/m2
19:55 50.4 °F /  10.2 °C 49.5 °F /  9.7 °C 30.1 in /  1018.2 hPa NNW 3 mph /  4.8 km/h 12 mph /  19.3 km/h 97 % 0 in /  0.0 mm 0 W/m2
20:05 50.2 °F /  10.1 °C 49.3 °F /  9.6 °C 30.1 in /  1018.2 hPa NW 5 mph /  8.0 km/h 9 mph /  14.5 km/h 97 % 0 in /  0.0 mm 0 W/m2
20:10 50 °F /  10.0 °C 49.1 °F /  9.5 °C 30.1 in /  1018.2 hPa NNW 4 mph /  6.4 km/h 11 mph /  17.7 km/h 97 % 0 in /  0.0 mm 0 W/m2
20:15 49.8 °F /  9.9 °C 49.1 °F /  9.5 °C 30.1 in /  1018.2 hPa WNW 4 mph /  6.4 km/h 11 mph /  17.7 km/h 97 % 0 in /  0.0 mm 0 W/m2
20:25 49.5 °F /  9.7 °C 48.6 °F /  9.2 °C 30.1 in /  1018.2 hPa West 3 mph /  4.8 km/h 11 mph /  17.7 km/h 97 % 0 in /  0.0 mm 0 W/m2
20:40 49.3 °F /  9.6 °C 48.4 °F /  9.1 °C 30.1 in /  1018.5 hPa WNW 5 mph /  8.0 km/h 9 mph /  14.5 km/h 97 % 0 in /  0.0 mm 0 W/m2
20:45 48.9 °F /  9.4 °C 48.2 °F /  9.0 °C 30.1 in /  1018.5 hPa NW 7 mph /  11.3 km/h 10 mph /  16.1 km/h 97 % 0 in /  0.0 mm 0 W/m2
20:50 48.7 °F /  9.3 °C 47.7 °F /  8.7 °C 30.1 in /  1018.8 hPa NW 9 mph /  14.5 km/h 13 mph /  20.9 km/h 96 % 0 in /  0.0 mm 0 W/m2
20:55 48.4 °F /  9.1 °C 47.3 °F /  8.5 °C 30.1 in /  1018.8 hPa NNW 11 mph /  17.7 km/h 13 mph /  20.9 km/h 96 % 0 in /  0.0 mm 0 W/m2
21:00 48 °F /  8.9 °C 46.9 °F /  8.3 °C 30.1 in /  1018.8 hPa NW 4 mph /  6.4 km/h 15 mph /  24.1 km/h 96 % 0 in /  0.0 mm 0 W/m2
21:10 47.8 °F /  8.8 °C 46.4 °F /  8.0 °C 30.1 in /  1019.2 hPa NW 7 mph /  11.3 km/h 14 mph /  22.5 km/h 95 % 0 in /  0.0 mm 0 W/m2
21:15 47.5 °F /  8.6 °C 46.2 °F /  7.9 °C 30.1 in /  1019.2 hPa NW 4 mph /  6.4 km/h 13 mph /  20.9 km/h 95 % 0 in /  0.0 mm 0 W/m2
21:25 47.1 °F /  8.4 °C 45.9 °F /  7.7 °C 30.1 in /  1019.5 hPa NNW 6 mph /  9.7 km/h 15 mph /  24.1 km/h 95 % 0 in /  0.0 mm 0 W/m2
21:30 46.9 °F /  8.3 °C 45.7 °F /  7.6 °C 30.1 in /  1019.5 hPa WNW 4 mph /  6.4 km/h 12 mph /  19.3 km/h 95 % 0 in /  0.0 mm 0 W/m2
21:35 46.9 °F /  8.3 °C 45.5 °F /  7.5 °C 30.1 in /  1019.5 hPa NNW 6 mph /  9.7 km/h 10 mph /  16.1 km/h 95 % 0 in /  0.0 mm 0 W/m2
21:40 46.8 °F /  8.2 °C 45.1 °F /  7.3 °C 30.1 in /  1019.5 hPa NW 6 mph /  9.7 km/h 12 mph /  19.3 km/h 94 % 0 in /  0.0 mm 0 W/m2
21:45 46.4 °F /  8.0 °C 44.8 °F /  7.1 °C 30.1 in /  1019.5 hPa NW 1 mph /  1.6 km/h 12 mph /  19.3 km/h 94 % 0 in /  0.0 mm 0 W/m2
21:55 45.9 °F /  7.7 °C 44.2 °F /  6.8 °C 30.1 in /  1019.9 hPa NNW 5 mph /  8.0 km/h 14 mph /  22.5 km/h 94 % 0 in /  0.0 mm 0 W/m2
22:05 45.3 °F /  7.4 °C 43.5 °F /  6.4 °C 30.1 in /  1019.9 hPa NNE 5 mph /  8.0 km/h 12 mph /  19.3 km/h 93 % 0 in /  0.0 mm 0 W/m2
22:15 44.8 °F /  7.1 °C 43.2 °F /  6.2 °C 30.1 in /  1020.2 hPa WNW 3 mph /  4.8 km/h 11 mph /  17.7 km/h 94 % 0 in /  0.0 mm 0 W/m2
22:20 44.8 °F /  7.1 °C 43.2 °F /  6.2 °C 30.1 in /  1019.9 hPa NNW 9 mph /  14.5 km/h 11 mph /  17.7 km/h 94 % 0 in /  0.0 mm 0 W/m2
22:25 44.8 °F /  7.1 °C 43.2 °F /  6.2 °C 30.1 in /  1020.2 hPa NW 6 mph /  9.7 km/h 11 mph /  17.7 km/h 94 % 0 in /  0.0 mm 0 W/m2
22:30 45.1 °F /  7.3 °C 43.5 °F /  6.4 °C 30.1 in /  1020.2 hPa NW 3 mph /  4.8 km/h 10 mph /  16.1 km/h 94 % 0 in /  0.0 mm 0 W/m2
22:35 45.1 °F /  7.3 °C 43.5 °F /  6.4 °C 30.1 in /  1020.2 hPa NW 4 mph /  6.4 km/h 9 mph /  14.5 km/h 94 % 0 in /  0.0 mm 0 W/m2
22:38 45.1 °F /  7.3 °C 43.5 °F /  6.4 °C 30.1 in /  1020.2 hPa WNW 3 mph /  4.8 km/h 7 mph /  11.3 km/h 94 % 0 in /  0.0 mm 0 W/m2
22:49 45.1 °F /  7.3 °C 43.5 °F /  6.4 °C 30.1 in /  1020.2 hPa NW 6 mph /  9.7 km/h 7 mph /  11.3 km/h 94 % 0 in /  0.0 mm 0 W/m2
22:55 44.8 °F /  7.1 °C 42.8 °F /  6.0 °C 30.1 in /  1020.2 hPa NW 4 mph /  6.4 km/h 7 mph /  11.3 km/h 93 % 0 in /  0.0 mm 0 W/m2
23:10 44.8 °F /  7.1 °C 43.2 °F /  6.2 °C 30.1 in /  1020.2 hPa WNW 2 mph /  3.2 km/h 7 mph /  11.3 km/h 94 % 0 in /  0.0 mm 0 W/m2
23:20 44.8 °F /  7.1 °C 43.2 °F /  6.2 °C 30.1 in /  1020.2 hPa Calm   5 mph /  8.0 km/h 94 % 0 in /  0.0 mm 0 W/m2
23:25 45 °F /  7.2 °C 43.3 °F /  6.3 °C 30.1 in /  1020.2 hPa NW 4 mph /  6.4 km/h 6 mph /  9.7 km/h 94 % 0 in /  0.0 mm 0 W/m2
23:30 45 °F /  7.2 °C 43.3 °F /  6.3 °C 30.1 in /  1020.2 hPa WNW 4 mph /  6.4 km/h 7 mph /  11.3 km/h 94 % 0 in /  0.0 mm 0 W/m2
23:35 45.1 °F /  7.3 °C 43.5 °F /  6.4 °C 30.1 in /  1020.2 hPa NW 3 mph /  4.8 km/h 7 mph /  11.3 km/h 94 % 0 in /  0.0 mm 0 W/m2
23:40 45.1 °F /  7.3 °C 43.3 °F /  6.3 °C 30.1 in /  1020.2 hPa NW 1 mph /  1.6 km/h 6 mph /  9.7 km/h 93 % 0 in /  0.0 mm 0 W/m2
23:45 45 °F /  7.2 °C 43.2 °F /  6.2 °C 30.1 in /  1020.2 hPa WNW 6 mph /  9.7 km/h 7 mph /  11.3 km/h 93 % 0 in /  0.0 mm 0 W/m2
23:50 44.8 °F /  7.1 °C 43 °F /  6.1 °C 30.1 in /  1020.2 hPa NNW 4 mph /  6.4 km/h 7 mph /  11.3 km/h 93 % 0 in /  0.0 mm 0 W/m2
23:55 44.8 °F /  7.1 °C 42.8 °F /  6.0 °C 30.1 in /  1020.2 hPa WNW 4 mph /  6.4 km/h 9 mph /  14.5 km/h 93 % 0 in /  0.0 mm 0 W/m2
Avec l'autorisation de Weather Underground - 1.5 mb